LEMH

Menorca Airport

Menorca Island, Spain
TAF LEMH 221400Z 2215/2315 30007KT 9999 SCT020 SCT030 TX13/2312Z TN05/2306Z TEMPO 2216/2223 26015G25KT PROB30 TEMPO 2220/2302 2000 SHRA SCT020TCU BKN025 BECMG 2304/2307 27015KT TEMPO 2308/2315 27020G33KT
Issued Valid From Valid To
Jan-22 @ 14:00 UTC
(3 hours ago)
Jan-22 @ 15:00 UTC
(2 hours ago)
Jan-23 @ 15:00 UTC
(in 22 hours)
Jan-22 @ 15:00 to Jan-23 @ 04:00
TAF LEMH 221400Z 2215/2315 30007KT 9999 SCT020 SCT030 TX13/2312Z TN05/2306Z
Wind Visibility Clouds
300° at 7 knots 10,000+ meters
  • Scattered at 2,000' AGL
  • Scattered at 3,000' AGL
Temporary Jan-22 @ 16:00 to Jan-22 @ 23:00
TEMPO 2216/2223 26015G25KT
Wind
260° at 15 knots
 Gusting to 25 knots
Temporary  (Probability 30%) Jan-22 @ 20:00 to Jan-23 @ 02:00
PROB30 TEMPO 2220/2302 2000 SHRA SCT020TCU BKN025
Visibility Clouds Conditions
1,996 meters
  • Scattered at 2,000' AGL
  • Broken at 2,500' AGL
  • Rain
Becoming Jan-23 @ 04:00 to Jan-23 @ 15:00
BECMG 2304/2307 27015KT
Wind Visibility Clouds
270° at 15 knots 10,000+ meters
  • Scattered at 2,000' AGL
  • Scattered at 3,000' AGL
Temporary Jan-23 @ 08:00 to Jan-23 @ 15:00
TEMPO 2308/2315 27020G33KT
Wind
270° at 20 knots
 Gusting to 33 knots
TAF LEMH 221400Z 2215/2315 30007KT 9999 SCT020 SCT030 TX13/2312Z TN05/2306Z TEMPO 2216/2223 26015G25KT PROB30 TEMPO 2220/2302 2000 SHRA SCT020TCU BKN025 BECMG 2304/2307 27015KT TEMPO 2308/2315 27020G33KT
Issued Jan-22 @ 14:00 UTC
(3 hours ago)
Valid From Jan-22 @ 15:00 UTC
(2 hours ago)
Valid To Jan-23 @ 15:00 UTC
(in 22 hours)
Jan-22 @ 15:00 - Jan-23 @ 04:00
Wind Visibility
300° at 7 knots 10,000+ meters
Clouds
  • Scattered at 2,000' AGL
  • Scattered at 3,000' AGL
Temporary Jan-22 @ 16:00 - Jan-22 @ 23:00
Wind
260° at 15 knots
 Gusting to 25 knots
Probability 30% Temporary Jan-22 @ 20:00 - Jan-23 @ 02:00
Clouds
  • Scattered at 2,000' AGL
  • Broken at 2,500' AGL
Conditions
  • Rain
Becoming Jan-23 @ 04:00 - Jan-23 @ 15:00
Wind Visibility
270° at 15 knots 10,000+ meters
Clouds
  • Scattered at 2,000' AGL
  • Scattered at 3,000' AGL
Temporary Jan-23 @ 08:00 - Jan-23 @ 15:00
Wind
270° at 20 knots
 Gusting to 33 knots